createdAt,value
2018-07-10T00:02:34.171Z,71.90
2018-07-10T00:06:50.326Z,67.70
2018-07-10T00:11:02.200Z,68.70
2018-07-10T00:15:05.628Z,65.90
2018-07-10T00:19:09.039Z,65.80
2018-07-10T00:23:12.356Z,65.60
2018-07-10T00:27:15.717Z,67.30
2018-07-10T00:31:19.311Z,67.40
2018-07-10T00:35:22.708Z,68.20
2018-07-10T00:39:26.071Z,65.50
2018-07-10T00:43:29.710Z,66.00
2018-07-10T00:47:33.052Z,65.10
2018-07-10T00:51:37.863Z,65.90
2018-07-10T00:55:41.225Z,66.50
2018-07-10T00:59:44.599Z,67.70
2018-07-10T01:03:48.021Z,66.50
2018-07-10T01:07:51.455Z,66.80
2018-07-10T01:11:54.957Z,65.90
2018-07-10T01:15:58.454Z,65.90
2018-07-10T01:20:01.868Z,67.60
2018-07-10T01:24:05.336Z,67.50
2018-07-10T01:28:08.707Z,67.70
2018-07-10T01:32:12.112Z,68.00
2018-07-10T01:36:15.507Z,68.50
2018-07-10T01:40:18.904Z,66.90
2018-07-10T01:44:22.309Z,67.30
2018-07-10T01:48:25.707Z,67.60
2018-07-10T01:52:29.139Z,70.40
2018-07-10T01:56:32.737Z,67.50
2018-07-10T02:00:42.339Z,70.80
2018-07-10T02:04:45.725Z,68.90
2018-07-10T02:08:49.127Z,69.00
2018-07-10T02:12:53.367Z,66.70
2018-07-10T02:16:56.784Z,67.80
2018-07-10T02:21:04.120Z,68.70
2018-07-10T02:25:07.508Z,69.10
2018-07-10T02:29:10.904Z,69.80
2018-07-10T02:33:14.309Z,70.80
2018-07-10T02:37:17.709Z,67.20
2018-07-10T02:41:23.444Z,66.70
2018-07-10T02:45:26.824Z,71.60
2018-07-10T02:49:30.254Z,68.20
2018-07-10T02:53:33.893Z,69.60
2018-07-10T02:57:38.105Z,70.30
2018-07-10T03:01:42.353Z,70.70
2018-07-10T03:05:45.728Z,74.00
2018-07-10T03:09:49.136Z,68.10
2018-07-10T03:13:52.539Z,68.70
2018-07-10T03:17:55.955Z,70.60
2018-07-10T03:21:59.349Z,70.00
2018-07-10T03:26:02.745Z,70.50
2018-07-10T03:30:06.149Z,68.10
2018-07-10T03:34:09.566Z,69.00
2018-07-10T03:38:13.640Z,71.30
2018-07-10T03:42:18.036Z,68.80
2018-07-10T03:46:22.097Z,70.00
2018-07-10T03:50:25.495Z,72.40
2018-07-10T03:54:28.888Z,73.10
2018-07-10T03:58:32.292Z,71.90
2018-07-10T04:02:36.372Z,73.30
2018-07-10T04:06:40.432Z,77.10
2018-07-10T04:10:43.837Z,75.10
2018-07-10T04:14:47.276Z,75.00
2018-07-10T04:18:50.700Z,70.10
2018-07-10T04:22:55.707Z,75.40
2018-07-10T04:27:33.963Z,73.50
2018-07-10T04:31:58.674Z,73.20
2018-07-10T04:36:02.242Z,72.00
2018-07-10T04:40:06.261Z,76.00
2018-07-10T04:44:12.536Z,71.50
2018-07-10T04:48:36.556Z,72.70
2018-07-10T04:52:44.720Z,72.70
2018-07-10T04:56:54.451Z,76.30
2018-07-10T05:01:06.549Z,76.50
2018-07-10T05:05:09.972Z,80.10
2018-07-10T05:09:13.318Z,79.60
2018-07-10T05:13:17.263Z,75.40
2018-07-10T05:17:20.646Z,79.60
2018-07-10T05:21:24.008Z,80.50
2018-07-10T05:25:27.366Z,79.00
2018-07-10T05:29:30.740Z,79.50
2018-07-10T05:33:35.140Z,81.40
2018-07-10T05:37:38.695Z,77.20
2018-07-10T05:41:45.224Z,76.90
2018-07-10T05:45:48.603Z,80.60
2018-07-10T05:49:55.080Z,79.10
2018-07-10T05:53:58.917Z,81.40
2018-07-10T05:58:02.322Z,80.90
2018-07-10T06:02:05.713Z,79.40
2018-07-10T06:06:13.285Z,79.40
2018-07-10T06:10:16.640Z,83.40
2018-07-10T06:14:20.029Z,81.50
2018-07-10T06:18:23.406Z,81.20
2018-07-10T06:22:26.852Z,79.70
2018-07-10T06:26:30.196Z,82.30
2018-07-10T06:30:33.640Z,82.10
2018-07-10T06:34:38.471Z,77.90
2018-07-10T06:38:47.110Z,83.10
2018-07-10T06:43:09.960Z,84.20
2018-07-10T06:47:17.625Z,83.20
2018-07-10T06:51:20.973Z,80.90
2018-07-10T06:55:24.363Z,79.00
2018-07-10T06:59:27.729Z,81.80
2018-07-10T07:03:31.137Z,79.30
2018-07-10T07:07:35.656Z,80.00
2018-07-10T07:11:39.005Z,83.60
2018-07-10T07:15:42.417Z,80.80
2018-07-10T07:19:46.580Z,80.20
2018-07-10T07:23:50.044Z,84.40
2018-07-10T07:27:53.345Z,83.00
2018-07-10T07:31:56.738Z,82.90
2018-07-10T07:36:00.168Z,78.10
2018-07-10T07:40:03.539Z,87.20
2018-07-10T07:44:07.244Z,81.60
2018-07-10T07:48:10.507Z,81.50
2018-07-10T07:52:13.855Z,78.40
2018-07-10T07:56:17.256Z,78.50
2018-07-10T08:00:20.632Z,78.80
2018-07-10T08:04:24.079Z,83.10
2018-07-10T08:08:27.444Z,80.10
2018-07-10T08:12:32.322Z,78.10
2018-07-10T08:16:35.730Z,81.70
2018-07-10T08:20:39.132Z,79.80
2018-07-10T08:24:42.523Z,81.90
2018-07-10T08:28:45.924Z,81.70
2018-07-10T08:32:51.052Z,80.10
2018-07-10T08:36:54.569Z,81.40
2018-07-10T08:40:57.955Z,78.30
2018-07-10T08:45:01.330Z,84.20
2018-07-10T08:49:04.719Z,80.40
2018-07-10T08:53:08.114Z,79.00
2018-07-10T08:57:11.527Z,78.30
2018-07-10T09:01:14.980Z,80.30
2018-07-10T09:05:18.371Z,84.50
2018-07-10T09:09:21.768Z,85.10
2018-07-10T09:13:25.163Z,82.90
2018-07-10T09:17:28.974Z,83.60
2018-07-10T09:21:32.423Z,85.30
2018-07-10T09:25:36.022Z,83.30
2018-07-10T09:29:39.595Z,84.70
2018-07-10T09:33:43.005Z,80.20
2018-07-10T09:37:47.112Z,80.80
2018-07-10T09:41:50.549Z,87.40
2018-07-10T09:45:53.917Z,82.00
2018-07-10T09:49:57.348Z,84.80
2018-07-10T09:54:00.712Z,82.00
2018-07-10T09:58:04.076Z,82.70
2018-07-10T10:02:12.999Z,84.10
2018-07-10T10:06:17.045Z,82.60
2018-07-10T10:10:20.431Z,85.60
2018-07-10T10:14:23.817Z,86.00
2018-07-10T10:18:27.762Z,84.50
2018-07-10T10:22:32.363Z,81.10
2018-07-10T10:26:35.742Z,82.80
2018-07-10T10:30:40.403Z,84.40
2018-07-10T10:34:43.792Z,80.80
2018-07-10T10:38:48.147Z,86.00
2018-07-10T10:42:51.565Z,82.70
2018-07-10T10:46:54.935Z,81.80
2018-07-10T10:50:58.362Z,79.30
2018-07-10T10:55:02.081Z,82.00
2018-07-10T10:59:05.888Z,82.70
2018-07-10T11:03:09.389Z,81.30
2018-07-10T11:07:14.045Z,81.80
2018-07-10T11:11:17.415Z,83.20
2018-07-10T11:15:21.176Z,83.80
2018-07-10T11:19:28.159Z,86.20
2018-07-10T11:27:48.971Z,81.60
2018-07-10T11:31:52.334Z,86.20
2018-07-10T11:35:55.706Z,81.10
2018-07-10T11:39:59.122Z,83.70
2018-07-10T11:44:06.604Z,82.60
2018-07-10T11:48:10.591Z,79.30
2018-07-10T11:52:13.961Z,81.90
2018-07-10T11:56:17.315Z,79.30
2018-07-10T12:00:20.779Z,84.40
2018-07-10T12:04:24.132Z,80.70
2018-07-10T12:08:27.508Z,77.70
2018-07-10T12:12:30.933Z,81.20
2018-07-10T12:16:34.316Z,84.60
2018-07-10T12:20:41.615Z,77.40
2018-07-10T12:24:45.035Z,78.40
2018-07-10T12:28:48.415Z,77.50
2018-07-10T12:32:51.771Z,81.20
2018-07-10T12:36:55.712Z,76.50
2018-07-10T12:40:59.068Z,75.90
2018-07-10T12:45:02.527Z,79.70
2018-07-10T12:49:05.928Z,76.10
2018-07-10T12:53:09.316Z,76.40
2018-07-10T13:01:16.945Z,78.60
2018-07-10T13:05:21.697Z,82.90
2018-07-10T13:09:25.087Z,82.70
2018-07-10T13:13:28.497Z,76.60
2018-07-10T13:17:31.879Z,77.90
2018-07-10T13:21:35.255Z,75.10
2018-07-10T13:25:38.627Z,77.20
2018-07-10T13:29:42.027Z,77.30
2018-07-10T13:33:45.400Z,79.70
2018-07-10T13:37:48.768Z,77.40
2018-07-10T13:41:52.152Z,83.00
2018-07-10T13:45:56.476Z,76.90
2018-07-10T13:49:59.957Z,77.30
2018-07-10T13:54:03.357Z,78.10
2018-07-10T13:58:23.182Z,76.90
2018-07-10T14:02:27.384Z,77.00
2018-07-10T14:06:30.733Z,76.00
2018-07-10T14:10:34.205Z,75.40
2018-07-10T14:14:37.625Z,78.50
2018-07-10T14:18:41.618Z,76.50
2018-07-10T14:26:48.059Z,76.10
2018-07-10T14:30:51.434Z,77.10
2018-07-10T14:34:54.821Z,76.00
2018-07-10T14:38:58.185Z,76.80
2018-07-10T14:43:01.692Z,79.20
2018-07-10T14:47:06.264Z,77.40
2018-07-10T14:51:09.776Z,80.50
2018-07-10T14:55:13.152Z,76.60
2018-07-10T14:59:16.516Z,80.00
2018-07-10T15:03:19.873Z,80.40
2018-07-10T15:11:26.311Z,76.10
2018-07-10T15:15:29.719Z,80.40
2018-07-10T15:19:33.660Z,79.00
2018-07-10T15:23:37.098Z,76.10
2018-07-10T15:27:40.436Z,75.70
2018-07-10T15:31:43.931Z,77.00
2018-07-10T15:35:47.280Z,77.60
2018-07-10T15:39:50.636Z,77.50
2018-07-10T15:43:54.022Z,76.20
2018-07-10T15:47:57.365Z,83.70
2018-07-10T15:52:01.016Z,79.70
2018-07-10T15:56:04.402Z,80.10
2018-07-10T16:00:07.821Z,84.40
2018-07-10T16:04:12.212Z,80.90
2018-07-10T16:08:18.819Z,84.40
2018-07-10T16:12:23.504Z,81.00
2018-07-10T16:16:26.883Z,77.10
2018-07-10T16:20:30.712Z,80.40
2018-07-10T16:24:37.711Z,80.00
2018-07-10T16:28:43.455Z,78.00
2018-07-10T16:32:46.866Z,80.70
2018-07-10T16:36:50.256Z,79.50
2018-07-10T16:40:57.860Z,78.00
2018-07-10T16:45:01.247Z,79.00
2018-07-10T16:49:15.319Z,82.10
2018-07-10T16:53:18.980Z,77.30
2018-07-10T16:57:22.417Z,75.90
2018-07-10T17:01:26.770Z,76.60
2018-07-10T17:05:30.140Z,76.90
2018-07-10T17:09:33.536Z,77.60
2018-07-10T17:13:36.933Z,78.10
2018-07-10T17:17:40.687Z,78.20
2018-07-10T17:21:44.107Z,76.30
2018-07-10T17:25:47.562Z,78.50
2018-07-10T17:29:50.903Z,78.50
2018-07-10T17:33:54.264Z,83.60
2018-07-10T17:37:57.637Z,81.00
2018-07-10T17:42:01.074Z,80.70
2018-07-10T17:46:04.492Z,83.10
2018-07-10T17:50:07.960Z,79.90
2018-07-10T17:54:11.359Z,81.50
2018-07-10T17:58:14.738Z,80.40
2018-07-10T18:02:18.103Z,78.30
2018-07-10T18:06:21.476Z,79.50
2018-07-10T18:10:25.073Z,79.60
2018-07-10T18:14:28.474Z,80.90
2018-07-10T18:18:38.177Z,82.60
2018-07-10T18:22:41.564Z,78.90
2018-07-10T18:26:44.979Z,78.90
2018-07-10T18:30:48.345Z,81.40
2018-07-10T18:34:51.759Z,78.30
2018-07-10T18:38:55.236Z,80.50
2018-07-10T18:42:58.576Z,82.00
2018-07-10T18:47:01.917Z,81.20
2018-07-10T18:51:05.308Z,87.50
2018-07-10T18:55:08.685Z,82.80
2018-07-10T18:59:15.541Z,83.50
2018-07-10T19:03:18.898Z,78.50
2018-07-10T19:07:22.547Z,78.50
2018-07-10T19:11:27.505Z,83.20
2018-07-10T19:15:30.911Z,79.70
2018-07-10T19:19:34.308Z,83.50
2018-07-10T19:23:41.732Z,80.40
2018-07-10T19:27:46.682Z,78.90
2018-07-10T19:31:51.188Z,77.00
2018-07-10T19:35:54.677Z,77.50
2018-07-10T19:39:58.074Z,76.80
2018-07-10T19:44:01.921Z,80.60
2018-07-10T19:48:05.530Z,77.80
2018-07-10T19:52:08.868Z,77.30
2018-07-10T19:56:12.227Z,77.80
2018-07-10T20:00:15.601Z,80.30
2018-07-10T20:04:24.639Z,79.10
2018-07-10T20:08:28.009Z,83.20
2018-07-10T20:12:38.541Z,80.50
2018-07-10T20:16:51.702Z,76.90
2018-07-10T20:20:59.324Z,82.20
2018-07-10T20:25:06.275Z,81.70
2018-07-10T20:29:24.024Z,79.80
2018-07-10T20:33:34.236Z,78.10
2018-07-10T20:37:39.362Z,79.50
2018-07-10T20:41:45.712Z,77.40
2018-07-10T20:45:51.174Z,80.00
2018-07-10T20:49:58.175Z,77.10
2018-07-10T20:54:11.976Z,78.10
2018-07-10T20:58:17.481Z,76.50
2018-07-10T21:02:31.003Z,78.70
2018-07-10T21:06:51.915Z,76.90
2018-07-10T21:11:05.185Z,77.60
2018-07-10T21:15:13.646Z,76.70
2018-07-10T21:19:30.102Z,77.20
2018-07-10T21:24:43.148Z,76.30
2018-07-10T21:28:52.187Z,76.50
2018-07-10T21:33:00.089Z,76.90
2018-07-10T21:38:18.168Z,75.70
2018-07-10T21:43:36.304Z,75.70
2018-07-10T21:47:55.377Z,76.90
2018-07-10T21:56:01.802Z,77.40
2018-07-10T22:00:05.404Z,77.00
2018-07-10T22:04:08.797Z,76.80
2018-07-10T22:12:19.221Z,76.00
2018-07-10T22:16:22.674Z,77.30
2018-07-10T22:20:26.049Z,76.20
2018-07-10T22:24:29.413Z,76.80
2018-07-10T22:28:32.848Z,75.60
2018-07-10T22:32:44.193Z,75.40
2018-07-10T22:36:47.519Z,74.70
2018-07-10T22:40:50.887Z,75.50
2018-07-10T22:44:58.201Z,76.90
2018-07-10T22:49:05.996Z,75.90
2018-07-10T22:53:09.396Z,75.80
2018-07-10T22:57:13.601Z,76.20
2018-07-10T23:01:16.960Z,75.30
2018-07-10T23:05:20.339Z,75.20
2018-07-10T23:09:23.746Z,75.90
2018-07-10T23:13:27.624Z,76.50
2018-07-10T23:17:31.064Z,76.00
2018-07-10T23:21:35.466Z,76.10
2018-07-10T23:25:38.818Z,76.00
2018-07-10T23:29:42.224Z,76.30
2018-07-10T23:33:48.920Z,77.10
2018-07-10T23:37:56.464Z,77.40
2018-07-10T23:42:04.804Z,77.90
2018-07-10T23:46:14.184Z,78.00
2018-07-10T23:50:21.120Z,79.40
2018-07-10T23:54:24.528Z,77.30
2018-07-10T23:58:27.899Z,76.80
